sensor_id;sensor_type;location;lat;lon;timestamp;pressure;altitude;pressure_sealevel;temperature;humidity
27712;BME280;2377;51.734;8.950;2023-07-20T00:00:12;97628.84;;;17.67;87.57
27712;BME280;2377;51.734;8.950;2023-07-20T00:02:40;97629.34;;;17.69;87.19
27712;BME280;2377;51.734;8.950;2023-07-20T00:05:08;97628.56;;;17.74;87.09
27712;BME280;2377;51.734;8.950;2023-07-20T00:07:35;97630.63;;;17.77;87.31
27712;BME280;2377;51.734;8.950;2023-07-20T00:10:03;97629.34;;;17.74;87.31
27712;BME280;2377;51.734;8.950;2023-07-20T00:12:30;97635.78;;;17.77;87.09
27712;BME280;2377;51.734;8.950;2023-07-20T00:14:57;97638.16;;;17.73;87.17
27712;BME280;2377;51.734;8.950;2023-07-20T00:17:24;97625.72;;;17.75;87.55
27712;BME280;2377;51.734;8.950;2023-07-20T00:19:52;97620.84;;;17.69;87.71
27712;BME280;2377;51.734;8.950;2023-07-20T00:22:20;97624.94;;;17.70;87.82
27712;BME280;2377;51.734;8.950;2023-07-20T00:24:47;97630.91;;;17.70;88.07
27712;BME280;2377;51.734;8.950;2023-07-20T00:27:15;97623.94;;;17.66;88.73
27712;BME280;2377;51.734;8.950;2023-07-20T00:29:42;97628.84;;;17.67;88.66
27712;BME280;2377;51.734;8.950;2023-07-20T00:32:09;97630.66;;;17.67;88.75
27712;BME280;2377;51.734;8.950;2023-07-20T00:34:36;97630.16;;;17.65;89.42
27712;BME280;2377;51.734;8.950;2023-07-20T00:37:04;97633.25;;;17.67;89.30
27712;BME280;2377;51.734;8.950;2023-07-20T00:39:32;97631.69;;;17.71;88.90
27712;BME280;2377;51.734;8.950;2023-07-20T00:42:00;97628.06;;;17.72;88.66
27712;BME280;2377;51.734;8.950;2023-07-20T00:44:27;97628.81;;;17.78;88.71
27712;BME280;2377;51.734;8.950;2023-07-20T00:46:54;97626.50;;;17.76;88.86
27712;BME280;2377;51.734;8.950;2023-07-20T00:49:22;97626.00;;;17.69;88.81
27712;BME280;2377;51.734;8.950;2023-07-20T00:51:50;97622.38;;;17.70;88.77
27712;BME280;2377;51.734;8.950;2023-07-20T00:54:18;97619.03;;;17.64;88.81
27712;BME280;2377;51.734;8.950;2023-07-20T00:56:47;97623.44;;;17.59;88.82
27712;BME280;2377;51.734;8.950;2023-07-20T00:59:14;97625.00;;;17.54;88.85
27712;BME280;2377;51.734;8.950;2023-07-20T01:01:41;97621.38;;;17.56;88.74
27712;BME280;2377;51.734;8.950;2023-07-20T01:04:09;97625.78;;;17.55;88.90
27712;BME280;2377;51.734;8.950;2023-07-20T01:06:45;97621.38;;;17.56;89.30
27712;BME280;2377;51.734;8.950;2023-07-20T01:09:26;97614.94;;;17.48;89.57
27712;BME280;2377;51.734;8.950;2023-07-20T01:12:05;97620.09;;;17.48;89.74
27712;BME280;2377;51.734;8.950;2023-07-20T01:14:34;97620.88;;;17.48;90.06
27712;BME280;2377;51.734;8.950;2023-07-20T01:17:03;97617.50;;;17.53;89.95
27712;BME280;2377;51.734;8.950;2023-07-20T01:19:31;97618.03;;;17.55;89.56
27712;BME280;2377;51.734;8.950;2023-07-20T01:22:06;97616.47;;;17.59;89.74
27712;BME280;2377;51.734;8.950;2023-07-20T01:25:11;97621.13;;;17.52;90.08
27712;BME280;2377;51.734;8.950;2023-07-20T01:28:39;97618.81;;;17.50;90.37
27712;BME280;2377;51.734;8.950;2023-07-20T01:31:25;97625.50;;;17.51;90.00
27712;BME280;2377;51.734;8.950;2023-07-20T01:33:56;97623.44;;;17.53;89.90
27712;BME280;2377;51.734;8.950;2023-07-20T01:36:29;97623.19;;;17.50;90.40
27712;BME280;2377;51.734;8.950;2023-07-20T01:38:57;97618.03;;;17.50;90.18
27712;BME280;2377;51.734;8.950;2023-07-20T01:41:24;97623.44;;;17.53;91.13
27712;BME280;2377;51.734;8.950;2023-07-20T01:43:52;97615.69;;;17.48;91.12
27712;BME280;2377;51.734;8.950;2023-07-20T01:46:23;97617.00;;;17.51;90.84
27712;BME280;2377;51.734;8.950;2023-07-20T01:48:50;97616.47;;;17.54;91.16
27712;BME280;2377;51.734;8.950;2023-07-20T01:51:18;97617.75;;;17.57;91.04
27712;BME280;2377;51.734;8.950;2023-07-20T01:53:45;97619.31;;;17.58;91.09
27712;BME280;2377;51.734;8.950;2023-07-20T01:56:12;97621.34;;;17.61;91.19
27712;BME280;2377;51.734;8.950;2023-07-20T01:58:39;97613.38;;;17.57;91.33
27712;BME280;2377;51.734;8.950;2023-07-20T02:01:06;97615.16;;;17.57;90.83
27712;BME280;2377;51.734;8.950;2023-07-20T02:03:35;97611.56;;;17.58;90.66
27712;BME280;2377;51.734;8.950;2023-07-20T02:06:02;97609.97;;;17.57;91.04
27712;BME280;2377;51.734;8.950;2023-07-20T02:08:29;97608.97;;;17.58;91.33
27712;BME280;2377;51.734;8.950;2023-07-20T02:10:57;97607.41;;;17.62;91.52
27712;BME280;2377;51.734;8.950;2023-07-20T02:13:24;97599.91;;;17.60;91.56
27712;BME280;2377;51.734;8.950;2023-07-20T02:15:51;97606.41;;;17.52;92.24
27712;BME280;2377;51.734;8.950;2023-07-20T02:18:18;97605.63;;;17.42;93.07
27712;BME280;2377;51.734;8.950;2023-07-20T02:20:47;97598.66;;;17.37;93.32
27712;BME280;2377;51.734;8.950;2023-07-20T02:23:14;97609.28;;;17.36;93.32
27712;BME280;2377;51.734;8.950;2023-07-20T02:25:41;97606.19;;;17.33;93.51
27712;BME280;2377;51.734;8.950;2023-07-20T02:28:13;97602.53;;;17.35;93.21
27712;BME280;2377;51.734;8.950;2023-07-20T02:30:40;97612.63;;;17.36;93.37
27712;BME280;2377;51.734;8.950;2023-07-20T02:33:07;97608.75;;;17.28;93.34
27712;BME280;2377;51.734;8.950;2023-07-20T02:35:35;97610.56;;;17.23;94.04
27712;BME280;2377;51.734;8.950;2023-07-20T02:38:03;97604.88;;;17.21;93.77
27712;BME280;2377;51.734;8.950;2023-07-20T02:40:30;97603.06;;;17.16;94.27
27712;BME280;2377;51.734;8.950;2023-07-20T02:42:57;97612.38;;;17.17;94.06
27712;BME280;2377;51.734;8.950;2023-07-20T02:45:25;97609.56;;;17.24;94.07
27712;BME280;2377;51.734;8.950;2023-07-20T02:47:52;97617.78;;;17.21;93.86
27712;BME280;2377;51.734;8.950;2023-07-20T02:50:19;97612.63;;;17.21;94.38
27712;BME280;2377;51.734;8.950;2023-07-20T02:52:46;97610.56;;;17.18;94.27
27712;BME280;2377;51.734;8.950;2023-07-20T02:55:15;97608.50;;;17.25;93.80
27712;BME280;2377;51.734;8.950;2023-07-20T02:57:42;97608.75;;;17.23;93.64
27712;BME280;2377;51.734;8.950;2023-07-20T03:00:11;97610.31;;;17.14;94.27
27712;BME280;2377;51.734;8.950;2023-07-20T03:02:41;97607.22;;;17.12;94.42
27712;BME280;2377;51.734;8.950;2023-07-20T03:05:09;97616.53;;;17.08;94.60
27712;BME280;2377;51.734;8.950;2023-07-20T03:07:36;97615.25;;;17.05;95.16
27712;BME280;2377;51.734;8.950;2023-07-20T03:10:05;97616.25;;;16.99;96.12
27712;BME280;2377;51.734;8.950;2023-07-20T03:12:36;97605.16;;;16.99;95.65
27712;BME280;2377;51.734;8.950;2023-07-20T03:15:04;97612.66;;;17.05;95.81
27712;BME280;2377;51.734;8.950;2023-07-20T03:17:32;97603.88;;;17.06;95.54
27712;BME280;2377;51.734;8.950;2023-07-20T03:19:59;97606.44;;;17.11;95.71
27712;BME280;2377;51.734;8.950;2023-07-20T03:22:27;97599.50;;;17.12;95.56
27712;BME280;2377;51.734;8.950;2023-07-20T03:24:54;97603.34;;;17.09;95.79
27712;BME280;2377;51.734;8.950;2023-07-20T03:27:21;97604.66;;;17.17;95.46
27712;BME280;2377;51.734;8.950;2023-07-20T03:29:49;97606.19;;;17.18;95.32
27712;BME280;2377;51.734;8.950;2023-07-20T03:32:17;97602.84;;;17.13;95.04
27712;BME280;2377;51.734;8.950;2023-07-20T03:34:44;97609.03;;;17.06;95.71
27712;BME280;2377;51.734;8.950;2023-07-20T03:37:12;97608.25;;;17.11;95.45
27712;BME280;2377;51.734;8.950;2023-07-20T03:39:39;97606.44;;;17.11;95.27
27712;BME280;2377;51.734;8.950;2023-07-20T03:42:10;97598.16;;;17.09;95.43
27712;BME280;2377;51.734;8.950;2023-07-20T03:44:37;97611.34;;;17.08;95.42
27712;BME280;2377;51.734;8.950;2023-07-20T03:47:06;97598.16;;;17.09;95.18
27712;BME280;2377;51.734;8.950;2023-07-20T03:49:33;97604.66;;;17.17;94.86
27712;BME280;2377;51.734;8.950;2023-07-20T03:52:01;97601.78;;;17.08;95.32
27712;BME280;2377;51.734;8.950;2023-07-20T03:54:29;97598.16;;;17.09;95.42
27712;BME280;2377;51.734;8.950;2023-07-20T03:56:56;97600.50;;;17.11;95.68
27712;BME280;2377;51.734;8.950;2023-07-20T03:59:24;97598.44;;;17.08;96.03
27712;BME280;2377;51.734;8.950;2023-07-20T04:01:51;97603.34;;;16.94;97.04
27712;BME280;2377;51.734;8.950;2023-07-20T04:04:20;97589.66;;;17.04;95.83
27712;BME280;2377;51.734;8.950;2023-07-20T04:06:47;97595.59;;;17.04;95.96
27712;BME280;2377;51.734;8.950;2023-07-20T04:09:14;97595.59;;;17.04;95.86
27712;BME280;2377;51.734;8.950;2023-07-20T04:11:42;97590.44;;;17.04;95.89
27712;BME280;2377;51.734;8.950;2023-07-20T04:14:09;97595.88;;;17.08;95.89
27712;BME280;2377;51.734;8.950;2023-07-20T04:16:36;97597.94;;;17.06;95.86
27712;BME280;2377;51.734;8.950;2023-07-20T04:19:03;97598.47;;;17.03;96.07
27712;BME280;2377;51.734;8.950;2023-07-20T04:21:32;97603.34;;;17.04;95.80
27712;BME280;2377;51.734;8.950;2023-07-20T04:23:59;97610.06;;;17.00;96.24
27712;BME280;2377;51.734;8.950;2023-07-20T04:26:26;97612.91;;;16.99;96.47
27712;BME280;2377;51.734;8.950;2023-07-20T04:28:53;97625.56;;;16.90;97.21
27712;BME280;2377;51.734;8.950;2023-07-20T04:31:20;97626.31;;;16.90;97.49
27712;BME280;2377;51.734;8.950;2023-07-20T04:33:47;97620.91;;;16.92;97.29
27712;BME280;2377;51.734;8.950;2023-07-20T04:36:15;97629.69;;;16.91;97.19
27712;BME280;2377;51.734;8.950;2023-07-20T04:38:46;97631.75;;;16.94;97.02
27712;BME280;2377;51.734;8.950;2023-07-20T04:41:13;97629.19;;;16.94;95.30
27712;BME280;2377;51.734;8.950;2023-07-20T04:43:42;97613.94;;;16.87;93.17
27712;BME280;2377;51.734;8.950;2023-07-20T04:46:09;97622.44;;;16.83;92.39
27712;BME280;2377;51.734;8.950;2023-07-20T04:48:36;97622.94;;;16.75;92.73
27712;BME280;2377;51.734;8.950;2023-07-20T04:51:04;97626.00;;;16.77;92.08
27712;BME280;2377;51.734;8.950;2023-07-20T04:53:31;97626.81;;;16.72;91.30
27712;BME280;2377;51.734;8.950;2023-07-20T04:56:00;97628.34;;;16.63;91.33
27712;BME280;2377;51.734;8.950;2023-07-20T04:58:27;97630.34;;;16.51;92.35
27712;BME280;2377;51.734;8.950;2023-07-20T05:00:54;97627.78;;;16.51;92.90
27712;BME280;2377;51.734;8.950;2023-07-20T05:03:21;97627.75;;;16.40;94.26
27712;BME280;2377;51.734;8.950;2023-07-20T05:05:49;97636.03;;;16.47;94.16
27712;BME280;2377;51.734;8.950;2023-07-20T05:08:16;97636.81;;;16.53;94.39
27712;BME280;2377;51.734;8.950;2023-07-20T05:10:43;97630.94;;;16.63;94.65
27712;BME280;2377;51.734;8.950;2023-07-20T05:13:12;97629.34;;;16.67;94.34
27712;BME280;2377;51.734;8.950;2023-07-20T05:15:39;97630.88;;;16.53;96.15
27712;BME280;2377;51.734;8.950;2023-07-20T05:18:07;97633.75;;;16.61;96.05
27712;BME280;2377;51.734;8.950;2023-07-20T05:20:34;97630.66;;;16.59;95.94
27712;BME280;2377;51.734;8.950;2023-07-20T05:23:03;97635.28;;;16.62;96.45
27712;BME280;2377;51.734;8.950;2023-07-20T05:25:30;97623.94;;;16.68;95.34
27712;BME280;2377;51.734;8.950;2023-07-20T05:27:57;97636.59;;;16.65;96.02
27712;BME280;2377;51.734;8.950;2023-07-20T05:30:26;97636.09;;;16.68;95.78
27712;BME280;2377;51.734;8.950;2023-07-20T05:32:54;97631.41;;;16.55;96.85
27712;BME280;2377;51.734;8.950;2023-07-20T05:35:22;97634.75;;;16.55;96.74
27712;BME280;2377;51.734;8.950;2023-07-20T05:37:49;97641.50;;;16.61;96.75
27712;BME280;2377;51.734;8.950;2023-07-20T05:40:17;97642.00;;;16.63;96.45
27712;BME280;2377;51.734;8.950;2023-07-20T05:42:45;97646.91;;;16.65;95.69
27712;BME280;2377;51.734;8.950;2023-07-20T05:45:14;97649.22;;;16.56;95.17
27712;BME280;2377;51.734;8.950;2023-07-20T05:47:43;97648.16;;;16.47;93.91
27712;BME280;2377;51.734;8.950;2023-07-20T05:50:11;97657.44;;;16.43;94.31
27712;BME280;2377;51.734;8.950;2023-07-20T05:52:40;97656.13;;;16.40;94.47
27712;BME280;2377;51.734;8.950;2023-07-20T05:55:08;97649.94;;;16.36;94.29
27712;BME280;2377;51.734;8.950;2023-07-20T05:57:35;97658.47;;;16.37;94.47
27712;BME280;2377;51.734;8.950;2023-07-20T06:00:07;97665.94;;;16.38;94.63
27712;BME280;2377;51.734;8.950;2023-07-20T06:02:35;97664.09;;;16.28;94.17
27712;BME280;2377;51.734;8.950;2023-07-20T06:05:04;97667.72;;;16.33;94.50
27712;BME280;2377;51.734;8.950;2023-07-20T06:07:35;97663.63;;;16.37;94.25
27712;BME280;2377;51.734;8.950;2023-07-20T06:10:03;97672.38;;;16.36;93.62
27712;BME280;2377;51.734;8.950;2023-07-20T06:12:31;97684.75;;;16.34;92.60
27712;BME280;2377;51.734;8.950;2023-07-20T06:15:03;97690.94;;;16.27;92.24
27712;BME280;2377;51.734;8.950;2023-07-20T06:17:30;97681.13;;;16.30;92.83
27712;BME280;2377;51.734;8.950;2023-07-20T06:19:57;97680.63;;;16.27;92.58
27712;BME280;2377;51.734;8.950;2023-07-20T06:22:26;97687.56;;;16.27;92.93
27712;BME280;2377;51.734;8.950;2023-07-20T06:24:53;97679.06;;;16.26;93.43
27712;BME280;2377;51.734;8.950;2023-07-20T06:27:20;97685.25;;;16.25;92.51
27712;BME280;2377;51.734;8.950;2023-07-20T06:29:47;97677.50;;;16.25;92.72
27712;BME280;2377;51.734;8.950;2023-07-20T06:32:15;97688.84;;;16.30;93.38
27712;BME280;2377;51.734;8.950;2023-07-20T06:34:42;97694.53;;;16.26;93.40
27712;BME280;2377;51.734;8.950;2023-07-20T06:37:09;97702.28;;;16.32;93.56
27712;BME280;2377;51.734;8.950;2023-07-20T06:39:37;97687.84;;;16.36;92.86
27712;BME280;2377;51.734;8.950;2023-07-20T06:42:05;97688.91;;;16.40;92.84
27712;BME280;2377;51.734;8.950;2023-07-20T06:44:32;97698.72;;;16.43;92.72
27712;BME280;2377;51.734;8.950;2023-07-20T06:47:00;97687.88;;;16.46;92.90
27712;BME280;2377;51.734;8.950;2023-07-20T06:49:28;97694.09;;;16.55;92.40
27712;BME280;2377;51.734;8.950;2023-07-20T06:51:56;97694.91;;;16.56;91.33
27712;BME280;2377;51.734;8.950;2023-07-20T06:54:23;97695.41;;;16.58;91.60
27712;BME280;2377;51.734;8.950;2023-07-20T06:56:52;97698.81;;;16.68;90.81
27712;BME280;2377;51.734;8.950;2023-07-20T06:59:20;97708.94;;;16.80;91.21
27712;BME280;2377;51.734;8.950;2023-07-20T07:01:47;97706.63;;;16.84;89.98
27712;BME280;2377;51.734;8.950;2023-07-20T07:04:14;97709.22;;;16.94;90.44
27712;BME280;2377;51.734;8.950;2023-07-20T07:06:41;97707.16;;;17.01;91.00
27712;BME280;2377;51.734;8.950;2023-07-20T07:09:09;97711.81;;;17.09;91.20
27712;BME280;2377;51.734;8.950;2023-07-20T07:11:36;97715.72;;;17.12;90.31
27712;BME280;2377;51.734;8.950;2023-07-20T07:14:04;97724.72;;;17.04;89.34
27712;BME280;2377;51.734;8.950;2023-07-20T07:16:31;97725.50;;;17.05;89.29
27712;BME280;2377;51.734;8.950;2023-07-20T07:18:59;97722.91;;;17.00;89.75
27712;BME280;2377;51.734;8.950;2023-07-20T07:21:26;97734.50;;;16.92;89.03
27712;BME280;2377;51.734;8.950;2023-07-20T07:23:53;97729.34;;;16.92;89.20
27712;BME280;2377;51.734;8.950;2023-07-20T07:26:23;97736.56;;;16.95;88.27
27712;BME280;2377;51.734;8.950;2023-07-20T07:28:50;97731.94;;;16.92;88.33
27712;BME280;2377;51.734;8.950;2023-07-20T07:31:19;97737.34;;;16.85;88.17
27712;BME280;2377;51.734;8.950;2023-07-20T07:33:46;97743.53;;;16.84;88.71
27712;BME280;2377;51.734;8.950;2023-07-20T07:36:13;97747.66;;;16.85;89.07
27712;BME280;2377;51.734;8.950;2023-07-20T07:38:41;97742.28;;;16.97;88.20
27712;BME280;2377;51.734;8.950;2023-07-20T07:41:08;97745.38;;;17.04;88.17
27712;BME280;2377;51.734;8.950;2023-07-20T07:43:35;97744.09;;;17.07;86.94
27712;BME280;2377;51.734;8.950;2023-07-20T07:46:04;97749.25;;;17.07;86.47
27712;BME280;2377;51.734;8.950;2023-07-20T07:48:32;97756.78;;;17.19;85.89
27712;BME280;2377;51.734;8.950;2023-07-20T07:51:00;97759.38;;;17.34;86.33
27712;BME280;2377;51.734;8.950;2023-07-20T07:53:27;97761.72;;;17.56;84.76
27712;BME280;2377;51.734;8.950;2023-07-20T07:55:54;97760.16;;;17.65;83.88
27712;BME280;2377;51.734;8.950;2023-07-20T07:58:21;97769.50;;;17.82;83.67
27712;BME280;2377;51.734;8.950;2023-07-20T08:00:48;97771.56;;;18.00;82.92
27712;BME280;2377;51.734;8.950;2023-07-20T08:03:15;97776.47;;;18.02;79.12
27712;BME280;2377;51.734;8.950;2023-07-20T08:05:44;97769.19;;;18.19;79.96
27712;BME280;2377;51.734;8.950;2023-07-20T08:08:11;97777.75;;;18.04;78.33
27712;BME280;2377;51.734;8.950;2023-07-20T08:10:38;97782.69;;;17.95;79.76
27712;BME280;2377;51.734;8.950;2023-07-20T08:13:05;97774.16;;;17.90;79.59
27712;BME280;2377;51.734;8.950;2023-07-20T08:15:32;97780.09;;;17.85;78.41
27712;BME280;2377;51.734;8.950;2023-07-20T08:18:00;97788.84;;;18.10;79.42
27712;BME280;2377;51.734;8.950;2023-07-20T08:20:27;97786.47;;;18.39;75.95
27712;BME280;2377;51.734;8.950;2023-07-20T08:22:56;97787.72;;;18.52;77.43
27712;BME280;2377;51.734;8.950;2023-07-20T08:25:24;97782.50;;;18.67;72.88
27712;BME280;2377;51.734;8.950;2023-07-20T08:27:51;97782.16;;;18.89;75.29
27712;BME280;2377;51.734;8.950;2023-07-20T08:30:22;97787.19;;;19.20;74.07
27712;BME280;2377;51.734;8.950;2023-07-20T08:32:50;97785.31;;;19.26;72.11
27712;BME280;2377;51.734;8.950;2023-07-20T08:35:17;97792.19;;;19.06;71.74
27712;BME280;2377;51.734;8.950;2023-07-20T08:37:44;97785.31;;;18.81;71.03
27712;BME280;2377;51.734;8.950;2023-07-20T08:40:14;97790.25;;;18.72;72.28
27712;BME280;2377;51.734;8.950;2023-07-20T08:42:42;97790.47;;;18.91;70.99
27712;BME280;2377;51.734;8.950;2023-07-20T08:45:12;97799.00;;;18.92;68.60
27712;BME280;2377;51.734;8.950;2023-07-20T08:47:42;97800.03;;;18.96;65.01
27712;BME280;2377;51.734;8.950;2023-07-20T08:50:12;97801.00;;;19.00;65.22
27712;BME280;2377;51.734;8.950;2023-07-20T08:52:41;97797.63;;;19.10;67.00
27712;BME280;2377;51.734;8.950;2023-07-20T08:55:09;97789.59;;;19.06;61.51
27712;BME280;2377;51.734;8.950;2023-07-20T08:57:41;97796.38;;;18.97;61.18
27712;BME280;2377;51.734;8.950;2023-07-20T09:00:13;97792.66;;;19.13;63.04
27712;BME280;2377;51.734;8.950;2023-07-20T09:02:45;97802.88;;;19.39;63.21
27712;BME280;2377;51.734;8.950;2023-07-20T09:05:12;97798.88;;;19.52;66.18
27712;BME280;2377;51.734;8.950;2023-07-20T09:07:40;97799.53;;;19.73;66.24
27712;BME280;2377;51.734;8.950;2023-07-20T09:10:08;97797.25;;;19.71;63.15
27712;BME280;2377;51.734;8.950;2023-07-20T09:12:39;97793.38;;;19.69;62.91
27712;BME280;2377;51.734;8.950;2023-07-20T09:15:08;97807.31;;;19.73;59.21
27712;BME280;2377;51.734;8.950;2023-07-20T09:17:36;97797.91;;;19.82;61.31
27712;BME280;2377;51.734;8.950;2023-07-20T09:20:05;97803.22;;;19.67;58.00
27712;BME280;2377;51.734;8.950;2023-07-20T09:22:35;97800.16;;;19.59;57.93
27712;BME280;2377;51.734;8.950;2023-07-20T09:25:07;97802.16;;;19.68;59.74
27712;BME280;2377;51.734;8.950;2023-07-20T09:27:40;97806.88;;;19.60;62.33
27712;BME280;2377;51.734;8.950;2023-07-20T09:30:09;97804.06;;;19.52;62.39
27712;BME280;2377;51.734;8.950;2023-07-20T09:32:40;97802.13;;;19.73;64.24
27712;BME280;2377;51.734;8.950;2023-07-20T09:35:13;97807.63;;;20.00;63.90
27712;BME280;2377;51.734;8.950;2023-07-20T09:37:47;97803.13;;;20.35;63.39
27712;BME280;2377;51.734;8.950;2023-07-20T09:40:22;97814.31;;;20.60;61.17
27712;BME280;2377;51.734;8.950;2023-07-20T09:42:53;97816.88;;;20.65;56.46
27712;BME280;2377;51.734;8.950;2023-07-20T09:45:29;97818.34;;;20.47;57.18
27712;BME280;2377;51.734;8.950;2023-07-20T09:48:04;97813.28;;;20.32;57.07
27712;BME280;2377;51.734;8.950;2023-07-20T09:50:32;97814.41;;;20.49;59.24
27712;BME280;2377;51.734;8.950;2023-07-20T09:53:01;97819.41;;;20.46;55.44
27712;BME280;2377;51.734;8.950;2023-07-20T09:55:29;97812.28;;;20.57;56.22
27712;BME280;2377;51.734;8.950;2023-07-20T09:58:00;97808.63;;;20.82;56.95
27712;BME280;2377;51.734;8.950;2023-07-20T10:00:27;97817.47;;;21.00;58.45
27712;BME280;2377;51.734;8.950;2023-07-20T10:02:56;97810.38;;;20.86;55.83
27712;BME280;2377;51.734;8.950;2023-07-20T10:05:27;97815.69;;;20.76;56.12
27712;BME280;2377;51.734;8.950;2023-07-20T10:07:58;97811.63;;;20.70;56.20
27712;BME280;2377;51.734;8.950;2023-07-20T10:10:27;97819.16;;;20.90;57.95
27712;BME280;2377;51.734;8.950;2023-07-20T10:12:58;97811.25;;;21.20;58.32
27712;BME280;2377;51.734;8.950;2023-07-20T10:15:31;97817.13;;;21.25;53.26
27712;BME280;2377;51.734;8.950;2023-07-20T10:18:09;97816.72;;;21.37;57.97
27712;BME280;2377;51.734;8.950;2023-07-20T10:20:40;97818.50;;;21.42;53.58
27712;BME280;2377;51.734;8.950;2023-07-20T10:23:12;97813.91;;;21.33;53.82
27712;BME280;2377;51.734;8.950;2023-07-20T10:25:43;97818.13;;;21.29;53.83
27712;BME280;2377;51.734;8.950;2023-07-20T10:28:14;97819.66;;;21.30;52.07
27712;BME280;2377;51.734;8.950;2023-07-20T10:30:42;97817.13;;;21.25;54.44
27712;BME280;2377;51.734;8.950;2023-07-20T10:33:10;97808.09;;;21.42;55.50
27712;BME280;2377;51.734;8.950;2023-07-20T10:35:56;97813.91;;;21.71;52.23
27712;BME280;2377;51.734;8.950;2023-07-20T10:38:52;97808.19;;;21.69;49.44
27712;BME280;2377;51.734;8.950;2023-07-20T10:41:22;97810.72;;;21.74;51.25
27712;BME280;2377;51.734;8.950;2023-07-20T10:43:58;97810.47;;;21.90;51.19
27712;BME280;2377;51.734;8.950;2023-07-20T10:46:42;97813.19;;;21.99;50.58
27712;BME280;2377;51.734;8.950;2023-07-20T10:51:41;97810.97;;;21.92;51.70
27712;BME280;2377;51.734;8.950;2023-07-20T10:54:33;97814.66;;;21.72;49.99
27712;BME280;2377;51.734;8.950;2023-07-20T10:57:24;97806.38;;;21.70;52.18
27712;BME280;2377;51.734;8.950;2023-07-20T11:00:09;97808.31;;;21.78;50.33
27712;BME280;2377;51.734;8.950;2023-07-20T11:02:45;97812.41;;;21.98;50.77
27712;BME280;2377;51.734;8.950;2023-07-20T11:05:33;97807.81;;;22.09;47.91
27712;BME280;2377;51.734;8.950;2023-07-20T11:08:04;97814.56;;;22.10;47.22
27712;BME280;2377;51.734;8.950;2023-07-20T11:10:31;97815.00;;;21.98;48.65
27712;BME280;2377;51.734;8.950;2023-07-20T11:13:22;97814.56;;;22.10;48.79
27712;BME280;2377;51.734;8.950;2023-07-20T11:16:04;97812.16;;;22.13;50.06
27712;BME280;2377;51.734;8.950;2023-07-20T11:18:34;97802.78;;;22.12;48.51
27712;BME280;2377;51.734;8.950;2023-07-20T11:21:10;97800.41;;;22.16;48.81
27712;BME280;2377;51.734;8.950;2023-07-20T11:23:39;97800.44;;;22.30;48.88
27712;BME280;2377;51.734;8.950;2023-07-20T11:26:07;97798.69;;;22.25;48.08
27712;BME280;2377;51.734;8.950;2023-07-20T11:28:34;97797.91;;;22.38;49.43
27712;BME280;2377;51.734;8.950;2023-07-20T11:31:03;97807.09;;;22.50;49.26
27712;BME280;2377;51.734;8.950;2023-07-20T11:33:30;97799.53;;;22.62;48.80
27712;BME280;2377;51.734;8.950;2023-07-20T11:35:57;97805.81;;;22.75;48.33
27712;BME280;2377;51.734;8.950;2023-07-20T11:38:25;97792.09;;;22.83;47.70
27712;BME280;2377;51.734;8.950;2023-07-20T11:40:52;97800.13;;;22.87;48.90
27712;BME280;2377;51.734;8.950;2023-07-20T11:43:20;97793.16;;;22.82;47.64
27712;BME280;2377;51.734;8.950;2023-07-20T11:45:49;97798.50;;;22.63;48.05
27712;BME280;2377;51.734;8.950;2023-07-20T11:48:17;97797.63;;;22.54;48.57
27712;BME280;2377;51.734;8.950;2023-07-20T11:50:45;97797.25;;;22.61;49.38
27712;BME280;2377;51.734;8.950;2023-07-20T11:53:13;97791.66;;;22.67;47.01
27712;BME280;2377;51.734;8.950;2023-07-20T11:55:41;97791.34;;;22.55;47.37
27712;BME280;2377;51.734;8.950;2023-07-20T11:58:09;97786.13;;;22.55;47.31
27712;BME280;2377;51.734;8.950;2023-07-20T12:00:38;97785.56;;;22.72;48.31
27712;BME280;2377;51.734;8.950;2023-07-20T12:03:06;97780.03;;;22.87;48.59
27712;BME280;2377;51.734;8.950;2023-07-20T12:05:37;97783.88;;;23.04;47.94
27712;BME280;2377;51.734;8.950;2023-07-20T12:08:05;97785.72;;;22.89;46.13
27712;BME280;2377;51.734;8.950;2023-07-20T12:10:32;97780.78;;;23.02;46.51
27712;BME280;2377;51.734;8.950;2023-07-20T12:13:02;97776.06;;;23.04;46.71
27712;BME280;2377;51.734;8.950;2023-07-20T12:15:30;97775.69;;;22.83;46.46
27712;BME280;2377;51.734;8.950;2023-07-20T12:18:00;97777.13;;;23.03;47.07
27712;BME280;2377;51.734;8.950;2023-07-20T12:20:30;97786.72;;;23.16;47.14
27712;BME280;2377;51.734;8.950;2023-07-20T12:23:01;97779.16;;;23.28;46.97
27712;BME280;2377;51.734;8.950;2023-07-20T12:25:38;97782.34;;;23.25;46.33
27712;BME280;2377;51.734;8.950;2023-07-20T12:28:08;97780.34;;;23.22;46.34
27712;BME280;2377;51.734;8.950;2023-07-20T12:30:37;97779.22;;;23.14;45.58
27712;BME280;2377;51.734;8.950;2023-07-20T12:33:04;97776.06;;;23.04;46.13
27712;BME280;2377;51.734;8.950;2023-07-20T12:35:33;97782.88;;;23.13;46.54
27712;BME280;2377;51.734;8.950;2023-07-20T12:38:01;97776.63;;;23.14;44.47
27712;BME280;2377;51.734;8.950;2023-07-20T12:40:29;97775.53;;;23.15;44.73
27712;BME280;2377;51.734;8.950;2023-07-20T12:42:57;97779.97;;;23.15;45.23
27712;BME280;2377;51.734;8.950;2023-07-20T12:45:25;97775.38;;;23.12;45.52
27712;BME280;2377;51.734;8.950;2023-07-20T12:47:52;97769.00;;;23.04;43.44
27712;BME280;2377;51.734;8.950;2023-07-20T12:50:19;97760.91;;;22.92;45.13
27712;BME280;2377;51.734;8.950;2023-07-20T12:52:46;97763.78;;;22.90;46.41
27712;BME280;2377;51.734;8.950;2023-07-20T12:55:15;97762.63;;;22.96;45.23
27712;BME280;2377;51.734;8.950;2023-07-20T12:57:43;97759.66;;;22.89;43.51
27712;BME280;2377;51.734;8.950;2023-07-20T13:00:12;97757.03;;;22.89;44.51
27712;BME280;2377;51.734;8.950;2023-07-20T13:02:39;97759.72;;;22.98;45.30
27712;BME280;2377;51.734;8.950;2023-07-20T13:05:08;97751.56;;;22.77;44.63
27712;BME280;2377;51.734;8.950;2023-07-20T13:07:37;97755.56;;;22.61;46.03
27712;BME280;2377;51.734;8.950;2023-07-20T13:10:06;97748.25;;;22.49;45.72
27712;BME280;2377;51.734;8.950;2023-07-20T13:12:36;97755.19;;;22.40;46.36
27712;BME280;2377;51.734;8.950;2023-07-20T13:15:06;97763.09;;;22.48;46.25
27712;BME280;2377;51.734;8.950;2023-07-20T13:17:35;97765.41;;;22.36;45.55
27712;BME280;2377;51.734;8.950;2023-07-20T13:20:03;97767.53;;;22.20;46.00
27712;BME280;2377;51.734;8.950;2023-07-20T13:22:31;97763.94;;;22.16;47.38